createdAt,value
2019-05-30T00:01:27.562Z,11.30
2019-05-30T00:04:12.382Z,11.30
2019-05-30T00:06:58.532Z,11.30
2019-05-30T00:09:43.799Z,11.20
2019-05-30T00:12:29.700Z,11.20
2019-05-30T00:15:14.628Z,11.20
2019-05-30T00:18:00.881Z,11.10
2019-05-30T00:20:46.232Z,11.10
2019-05-30T00:23:31.053Z,11.00
2019-05-30T00:26:15.984Z,11.00
2019-05-30T00:29:00.965Z,10.90
2019-05-30T00:31:46.180Z,10.90
2019-05-30T00:34:31.061Z,10.80
2019-05-30T00:37:15.822Z,10.80
2019-05-30T00:40:01.924Z,10.80
2019-05-30T00:42:47.011Z,10.70
2019-05-30T00:45:33.118Z,10.70
2019-05-30T00:48:18.226Z,10.70
2019-05-30T00:51:04.548Z,10.60
2019-05-30T00:53:50.720Z,10.60
2019-05-30T00:56:35.504Z,10.50
2019-05-30T00:59:21.094Z,10.50
2019-05-30T01:02:06.943Z,10.50
2019-05-30T01:04:52.237Z,10.50
2019-05-30T01:07:37.141Z,10.40
2019-05-30T01:10:21.933Z,10.30
2019-05-30T01:13:07.285Z,10.20
2019-05-30T01:15:52.273Z,10.20
2019-05-30T01:18:37.197Z,10.00
2019-05-30T01:21:22.180Z,9.90
2019-05-30T01:24:07.707Z,9.80
2019-05-30T01:26:52.617Z,9.70
2019-05-30T01:29:37.450Z,9.70
2019-05-30T01:32:29.193Z,9.60
2019-05-30T01:35:28.059Z,9.60
2019-05-30T01:38:13.137Z,9.60
2019-05-30T01:40:57.925Z,9.50
2019-05-30T01:43:42.722Z,9.50
2019-05-30T01:46:27.882Z,9.50
2019-05-30T01:49:12.604Z,9.60
2019-05-30T01:51:58.363Z,9.50
2019-05-30T01:54:43.218Z,9.40
2019-05-30T01:57:28.120Z,9.40
2019-05-30T02:00:20.606Z,9.30
2019-05-30T02:03:02.904Z,9.30
2019-05-30T02:05:48.163Z,9.30
2019-05-30T02:08:32.869Z,9.30
2019-05-30T02:11:17.619Z,9.30
2019-05-30T02:14:03.593Z,9.30
2019-05-30T02:16:49.737Z,9.30
2019-05-30T02:19:34.645Z,9.30
2019-05-30T02:22:19.532Z,9.20
2019-05-30T02:25:06.058Z,9.10
2019-05-30T02:27:51.225Z,9.00
2019-05-30T02:30:36.082Z,8.90
2019-05-30T02:33:21.162Z,9.00
2019-05-30T02:36:07.831Z,9.00
2019-05-30T02:38:52.795Z,9.00
2019-05-30T02:41:37.850Z,9.00
2019-05-30T02:44:22.609Z,8.90
2019-05-30T02:47:09.422Z,8.90
2019-05-30T02:49:54.396Z,8.90
2019-05-30T02:52:39.206Z,8.80
2019-05-30T02:55:24.070Z,8.80
2019-05-30T02:58:10.531Z,8.80
2019-05-30T03:00:55.899Z,8.80
2019-05-30T03:03:40.819Z,8.80
2019-05-30T03:06:26.038Z,8.80
2019-05-30T03:09:12.958Z,8.70
2019-05-30T03:11:58.542Z,8.70
2019-05-30T03:14:44.246Z,8.60
2019-05-30T03:17:29.114Z,8.60
2019-05-30T03:20:21.947Z,8.50
2019-05-30T03:23:02.828Z,8.50
2019-05-30T03:25:47.592Z,8.50
2019-05-30T03:28:32.590Z,8.50
2019-05-30T03:31:28.188Z,8.50
2019-05-30T03:34:13.658Z,8.50
2019-05-30T03:36:54.338Z,8.40
2019-05-30T03:39:39.171Z,8.30
2019-05-30T03:42:24.026Z,8.20
2019-05-30T03:45:11.323Z,8.20
2019-05-30T03:47:59.315Z,8.20
2019-05-30T03:50:47.975Z,8.30
2019-05-30T03:53:34.008Z,8.30
2019-05-30T03:56:28.378Z,8.40
2019-05-30T03:59:32.588Z,8.40
2019-05-30T04:02:30.383Z,8.40
2019-05-30T04:05:22.426Z,8.40
2019-05-30T04:08:10.029Z,8.50
2019-05-30T04:10:59.178Z,8.50
2019-05-30T04:13:58.031Z,8.50
2019-05-30T04:16:43.218Z,8.50
2019-05-30T04:19:27.997Z,8.60
2019-05-30T04:22:15.371Z,8.60
2019-05-30T04:25:00.609Z,8.60
2019-05-30T04:27:45.564Z,8.70
2019-05-30T04:30:30.906Z,8.70
2019-05-30T04:33:26.975Z,8.90
2019-05-30T04:36:03.097Z,9.00
2019-05-30T04:38:48.062Z,9.10
2019-05-30T04:41:32.945Z,9.20
2019-05-30T04:44:18.605Z,9.30
2019-05-30T04:47:04.755Z,9.40
2019-05-30T04:49:49.429Z,9.40
2019-05-30T04:52:34.416Z,9.50
2019-05-30T04:55:22.336Z,9.60
2019-05-30T04:58:07.653Z,9.60
2019-05-30T05:00:52.304Z,9.70
2019-05-30T05:03:45.657Z,9.80
2019-05-30T05:06:23.912Z,9.80
2019-05-30T05:09:08.729Z,9.80
2019-05-30T05:11:53.651Z,9.90
2019-05-30T05:14:38.470Z,10.00
2019-05-30T05:17:23.554Z,10.10
2019-05-30T05:20:09.023Z,10.20
2019-05-30T05:22:54.833Z,10.30
2019-05-30T05:25:39.554Z,10.50
2019-05-30T05:28:24.393Z,10.60
2019-05-30T05:31:09.317Z,10.70
2019-05-30T05:33:57.144Z,10.80
2019-05-30T05:36:41.047Z,10.90
2019-05-30T05:39:25.812Z,11.10
2019-05-30T05:42:10.670Z,11.20
2019-05-30T05:44:55.567Z,11.40
2019-05-30T05:47:40.274Z,11.40
2019-05-30T05:50:25.169Z,11.70
2019-05-30T05:53:09.865Z,12.00
2019-05-30T05:55:54.789Z,12.20
2019-05-30T05:58:39.481Z,12.30
2019-05-30T06:01:25.439Z,12.50
2019-05-30T06:04:13.415Z,12.60
2019-05-30T06:06:57.137Z,12.80
2019-05-30T06:09:42.246Z,13.00
2019-05-30T06:12:27.938Z,13.20
2019-05-30T06:15:13.180Z,13.30
2019-05-30T06:17:58.218Z,13.50
2019-05-30T06:20:43.015Z,13.70
2019-05-30T06:23:27.918Z,13.70
2019-05-30T06:26:12.574Z,13.70
2019-05-30T06:28:57.313Z,13.90
2019-05-30T06:31:42.162Z,14.00
2019-05-30T06:34:38.134Z,14.10
2019-05-30T06:37:13.904Z,14.30
2019-05-30T06:39:58.770Z,14.60
2019-05-30T06:42:44.685Z,14.60
2019-05-30T06:45:30.944Z,14.90
2019-05-30T06:48:15.858Z,15.10
2019-05-30T06:51:00.688Z,15.30
2019-05-30T06:53:45.636Z,15.50
2019-05-30T06:56:31.552Z,15.30
2019-05-30T06:59:16.779Z,15.20
2019-05-30T07:02:01.596Z,15.20
2019-05-30T07:04:51.707Z,15.20
2019-05-30T07:07:33.560Z,15.20
2019-05-30T07:10:19.461Z,15.30
2019-05-30T07:13:04.625Z,15.30
2019-05-30T07:15:50.057Z,15.50
2019-05-30T07:18:36.634Z,15.50
2019-05-30T07:21:21.671Z,15.50
2019-05-30T07:24:06.435Z,15.50
2019-05-30T07:26:51.395Z,15.50
2019-05-30T07:29:36.130Z,15.50
2019-05-30T07:32:20.937Z,15.60
2019-05-30T07:35:07.521Z,15.80
2019-05-30T07:37:52.770Z,15.90
2019-05-30T07:40:38.043Z,16.20
2019-05-30T07:43:25.369Z,16.30
2019-05-30T07:46:10.278Z,16.40
2019-05-30T07:48:55.548Z,16.30
2019-05-30T07:51:40.406Z,16.30
2019-05-30T07:54:26.758Z,16.40
2019-05-30T07:57:11.843Z,16.40
2019-05-30T07:59:56.917Z,16.70
2019-05-30T08:02:41.896Z,16.90
2019-05-30T08:05:27.097Z,17.10
2019-05-30T08:08:12.579Z,17.10
2019-05-30T08:11:08.792Z,17.10
2019-05-30T08:13:44.628Z,17.20
2019-05-30T08:16:29.411Z,17.20
2019-05-30T08:19:14.183Z,17.40
2019-05-30T08:21:58.965Z,17.60
2019-05-30T08:24:43.744Z,17.80
2019-05-30T08:27:30.145Z,17.80
2019-05-30T08:30:15.894Z,17.80
2019-05-30T08:33:00.805Z,17.90
2019-05-30T08:35:49.946Z,18.10
2019-05-30T08:38:33.160Z,18.10
2019-05-30T08:41:18.268Z,18.30
2019-05-30T08:44:03.624Z,18.30
2019-05-30T08:46:48.351Z,18.30
2019-05-30T08:49:34.053Z,18.50
2019-05-30T08:52:18.913Z,18.60
2019-05-30T08:55:07.560Z,18.70
2019-05-30T08:57:53.005Z,18.80
2019-05-30T09:00:37.976Z,18.90
2019-05-30T09:03:22.673Z,18.90
2019-05-30T09:06:07.464Z,19.00
2019-05-30T09:08:52.510Z,19.20
2019-05-30T09:11:39.304Z,19.30
2019-05-30T09:14:25.189Z,19.40
2019-05-30T09:17:10.006Z,19.30
2019-05-30T09:19:54.817Z,19.40
2019-05-30T09:22:39.921Z,19.70
2019-05-30T09:25:27.150Z,19.60
2019-05-30T09:28:12.138Z,19.50
2019-05-30T09:30:56.781Z,19.50
2019-05-30T09:33:42.722Z,19.70
2019-05-30T09:36:28.022Z,19.80
2019-05-30T09:39:12.909Z,19.90
2019-05-30T09:41:57.757Z,20.00
2019-05-30T09:44:44.129Z,20.10
2019-05-30T09:47:29.620Z,20.40
2019-05-30T09:50:14.741Z,20.40
2019-05-30T09:53:00.957Z,20.50
2019-05-30T09:55:46.327Z,20.50
2019-05-30T09:58:31.702Z,20.50
2019-05-30T10:01:17.007Z,20.20
2019-05-30T10:04:01.870Z,20.50
2019-05-30T10:06:48.253Z,20.60
2019-05-30T10:09:33.466Z,20.50
2019-05-30T10:12:18.243Z,20.50
2019-05-30T10:15:08.435Z,20.70
2019-05-30T10:17:54.656Z,20.90
2019-05-30T10:20:39.849Z,21.20
2019-05-30T10:23:24.599Z,21.20
2019-05-30T10:26:09.331Z,21.10
2019-05-30T10:28:54.617Z,21.10
2019-05-30T10:31:39.444Z,21.00
2019-05-30T10:34:24.105Z,21.10
2019-05-30T10:37:09.098Z,21.30
2019-05-30T10:39:58.724Z,21.60
2019-05-30T10:42:41.041Z,21.40
2019-05-30T10:45:26.021Z,21.60
2019-05-30T10:48:11.177Z,21.50
2019-05-30T10:50:56.462Z,21.60
2019-05-30T10:53:41.440Z,21.70
2019-05-30T10:56:26.370Z,21.70
2019-05-30T10:59:11.837Z,21.80
2019-05-30T11:01:57.306Z,21.70
2019-05-30T11:04:42.302Z,21.70
2019-05-30T11:07:33.833Z,21.80
2019-05-30T11:10:37.909Z,21.90
2019-05-30T11:13:22.806Z,22.50
2019-05-30T11:16:07.642Z,22.90
2019-05-30T11:18:53.116Z,23.00
2019-05-30T11:21:38.973Z,23.20
2019-05-30T11:24:24.013Z,23.00
2019-05-30T11:27:09.276Z,23.10
2019-05-30T11:29:54.795Z,23.00
2019-05-30T11:32:39.974Z,23.10
2019-05-30T11:35:25.958Z,23.00
2019-05-30T11:38:11.001Z,23.10
2019-05-30T11:40:55.719Z,23.50
2019-05-30T11:43:40.631Z,24.20
2019-05-30T11:46:25.505Z,25.60
2019-05-30T11:49:10.280Z,26.00
2019-05-30T11:51:55.768Z,26.50
2019-05-30T11:54:40.683Z,27.50
2019-05-30T11:57:25.493Z,28.10
2019-05-30T12:00:10.967Z,28.10
2019-05-30T12:02:56.528Z,28.30
2019-05-30T12:05:42.842Z,28.10
2019-05-30T12:08:27.801Z,28.40
2019-05-30T12:11:12.937Z,28.20
2019-05-30T12:13:57.683Z,28.40
2019-05-30T12:16:42.475Z,29.40
2019-05-30T12:19:27.099Z,29.90
2019-05-30T12:22:11.874Z,29.60
2019-05-30T12:24:57.724Z,29.00
2019-05-30T12:27:43.094Z,29.10
2019-05-30T12:30:28.515Z,28.80
2019-05-30T12:33:13.526Z,28.40
2019-05-30T12:35:58.587Z,28.60
2019-05-30T12:38:43.637Z,29.00
2019-05-30T12:41:28.384Z,29.60
2019-05-30T12:44:13.197Z,29.50
2019-05-30T12:46:59.129Z,29.50
2019-05-30T12:49:44.106Z,28.70
2019-05-30T12:52:29.029Z,26.80
2019-05-30T12:55:14.024Z,25.60
2019-05-30T12:57:59.233Z,26.30
2019-05-30T13:00:44.995Z,26.90
2019-05-30T13:03:29.953Z,27.80
2019-05-30T13:06:14.833Z,27.90
2019-05-30T13:09:01.087Z,28.50
2019-05-30T13:11:48.093Z,29.20
2019-05-30T13:14:32.922Z,29.20
2019-05-30T13:17:17.833Z,29.50
2019-05-30T13:20:09.069Z,29.20
2019-05-30T13:22:54.260Z,29.70
2019-05-30T13:25:39.159Z,28.80
2019-05-30T13:28:23.879Z,28.60
2019-05-30T13:31:08.866Z,28.10
2019-05-30T13:33:53.899Z,27.90
2019-05-30T13:36:38.677Z,27.60
2019-05-30T13:39:23.501Z,27.70
2019-05-30T13:42:08.505Z,27.70
2019-05-30T13:44:53.832Z,27.00
2019-05-30T13:47:38.690Z,27.30
2019-05-30T13:50:23.525Z,27.40
2019-05-30T13:53:09.337Z,27.60
2019-05-30T13:55:54.641Z,27.70
2019-05-30T13:58:39.866Z,27.20
2019-05-30T14:01:24.533Z,26.10
2019-05-30T14:04:10.499Z,25.90
2019-05-30T14:06:55.554Z,25.60
2019-05-30T14:09:40.530Z,25.60
2019-05-30T14:12:25.267Z,25.70
2019-05-30T14:15:14.107Z,25.70
2019-05-30T14:18:00.934Z,26.10
2019-05-30T14:20:47.231Z,26.10
2019-05-30T14:23:32.122Z,25.60
2019-05-30T14:26:16.902Z,25.30
2019-05-30T14:29:02.415Z,25.60
2019-05-30T14:31:48.826Z,26.10
2019-05-30T14:34:33.669Z,26.70
2019-05-30T14:37:18.530Z,26.80
2019-05-30T14:40:08.834Z,26.20
2019-05-30T14:42:53.950Z,25.70
2019-05-30T14:45:38.871Z,25.40
2019-05-30T14:48:23.538Z,25.00
2019-05-30T14:51:08.718Z,24.60
2019-05-30T14:53:53.927Z,24.30
2019-05-30T14:56:39.064Z,24.20
2019-05-30T14:59:24.135Z,24.40
2019-05-30T15:02:09.176Z,24.30
2019-05-30T15:04:54.241Z,24.00
2019-05-30T15:07:39.185Z,23.90
2019-05-30T15:10:24.308Z,24.20
2019-05-30T15:13:09.708Z,24.60
2019-05-30T15:15:57.009Z,25.30
2019-05-30T15:18:41.763Z,25.70
2019-05-30T15:21:26.567Z,26.10
2019-05-30T15:24:12.848Z,26.20
2019-05-30T15:26:58.263Z,26.00
2019-05-30T15:29:42.953Z,25.80
2019-05-30T15:32:27.994Z,25.50
2019-05-30T15:35:13.461Z,25.00
2019-05-30T15:37:58.730Z,25.00
2019-05-30T15:40:44.906Z,25.30
2019-05-30T15:43:29.838Z,25.60
2019-05-30T15:46:15.849Z,25.70
2019-05-30T15:49:01.059Z,25.80
2019-05-30T15:51:46.109Z,25.90
2019-05-30T15:54:30.894Z,26.40
2019-05-30T15:57:15.767Z,26.20
2019-05-30T16:00:01.300Z,25.60
2019-05-30T16:02:46.113Z,25.80
2019-05-30T16:05:30.989Z,26.10
2019-05-30T16:08:16.750Z,25.70
2019-05-30T16:11:02.029Z,25.30
2019-05-30T16:13:48.266Z,25.10
2019-05-30T16:16:39.730Z,25.20
2019-05-30T16:19:24.713Z,25.30
2019-05-30T16:22:07.075Z,25.10
2019-05-30T16:24:51.810Z,24.90
2019-05-30T16:27:36.646Z,24.80
2019-05-30T16:30:25.528Z,24.90
2019-05-30T16:33:09.998Z,24.80
2019-05-30T16:35:54.736Z,24.50
2019-05-30T16:38:39.572Z,24.10
2019-05-30T16:41:24.241Z,23.90
2019-05-30T16:44:09.151Z,23.60
2019-05-30T16:46:53.824Z,23.60
2019-05-30T16:49:38.592Z,23.70
2019-05-30T16:52:23.562Z,23.60
2019-05-30T16:55:09.684Z,23.20
2019-05-30T16:57:55.831Z,22.80
2019-05-30T17:00:40.883Z,22.50
2019-05-30T17:03:26.236Z,22.20
2019-05-30T17:06:11.224Z,22.10
2019-05-30T17:08:55.955Z,21.90
2019-05-30T17:11:40.997Z,21.80
2019-05-30T17:14:26.451Z,21.70
2019-05-30T17:17:12.431Z,21.40
2019-05-30T17:19:57.555Z,21.40
2019-05-30T17:22:43.432Z,21.30
2019-05-30T17:25:29.808Z,21.20
2019-05-30T17:28:15.086Z,21.10
2019-05-30T17:31:01.113Z,21.10
2019-05-30T17:33:45.826Z,21.10
2019-05-30T17:36:30.990Z,21.10
2019-05-30T17:39:16.913Z,21.50
2019-05-30T17:42:02.635Z,21.60
2019-05-30T17:44:47.818Z,22.00
2019-05-30T17:47:32.531Z,22.50
2019-05-30T17:50:17.610Z,22.70
2019-05-30T17:53:02.790Z,22.60
2019-05-30T17:55:48.124Z,22.10
2019-05-30T17:58:33.869Z,21.80
2019-05-30T18:01:18.691Z,21.40
2019-05-30T18:04:03.920Z,21.00
2019-05-30T18:06:48.752Z,20.90
2019-05-30T18:09:33.448Z,20.70
2019-05-30T18:12:18.771Z,20.60
2019-05-30T18:15:09.838Z,20.60
2019-05-30T18:17:55.111Z,20.50
2019-05-30T18:20:48.528Z,20.40
2019-05-30T18:23:27.668Z,20.30
2019-05-30T18:26:12.799Z,20.20
2019-05-30T18:28:57.644Z,20.20
2019-05-30T18:31:42.572Z,20.10
2019-05-30T18:34:28.435Z,20.10
2019-05-30T18:37:13.732Z,20.00
2019-05-30T18:39:58.586Z,20.00
2019-05-30T18:42:43.370Z,20.00
2019-05-30T18:45:36.625Z,19.90
2019-05-30T18:48:21.556Z,19.90
2019-05-30T18:51:06.275Z,19.80
2019-05-30T18:53:51.222Z,19.80
2019-05-30T18:56:36.986Z,19.70
2019-05-30T18:59:22.133Z,19.60
2019-05-30T19:02:07.155Z,19.50
2019-05-30T19:04:52.470Z,19.40
2019-05-30T19:07:37.345Z,19.30
2019-05-30T19:10:22.586Z,19.30
2019-05-30T19:13:07.467Z,19.10
2019-05-30T19:15:52.912Z,19.10
2019-05-30T19:18:37.703Z,19.00
2019-05-30T19:21:22.626Z,19.00
2019-05-30T19:24:07.333Z,18.90
2019-05-30T19:26:52.179Z,18.80
2019-05-30T19:29:37.349Z,18.80
2019-05-30T19:32:22.415Z,18.80
2019-05-30T19:35:09.049Z,18.70
2019-05-30T19:37:53.895Z,18.70
2019-05-30T19:40:38.930Z,18.70
2019-05-30T19:43:24.584Z,18.60
2019-05-30T19:46:12.945Z,18.60
2019-05-30T19:48:56.366Z,18.60
2019-05-30T19:51:41.165Z,18.50
2019-05-30T19:54:26.169Z,18.40
2019-05-30T19:57:10.921Z,18.50
2019-05-30T19:59:57.428Z,18.40
2019-05-30T20:02:42.577Z,18.40
2019-05-30T20:05:27.358Z,18.30
2019-05-30T20:08:12.668Z,18.20
2019-05-30T20:10:57.418Z,18.20
2019-05-30T20:13:42.853Z,18.20
2019-05-30T20:16:28.686Z,18.20
2019-05-30T20:19:13.812Z,18.20
2019-05-30T20:21:59.071Z,18.10
2019-05-30T20:24:46.918Z,18.00
2019-05-30T20:27:32.611Z,18.00
2019-05-30T20:30:18.639Z,17.90
2019-05-30T20:33:03.741Z,17.90
2019-05-30T20:35:48.546Z,17.90
2019-05-30T20:38:34.449Z,17.90
2019-05-30T20:41:19.858Z,17.90
2019-05-30T20:44:04.586Z,18.00
2019-05-30T20:46:50.333Z,17.90
2019-05-30T20:49:35.191Z,17.80
2019-05-30T20:52:20.343Z,17.80
2019-05-30T20:55:05.914Z,17.80
2019-05-30T20:57:51.010Z,17.70
2019-05-30T21:00:38.075Z,17.70
2019-05-30T21:03:22.873Z,17.60
2019-05-30T21:06:07.823Z,17.50
2019-05-30T21:08:53.261Z,17.50
2019-05-30T21:11:40.238Z,17.40
2019-05-30T21:14:27.729Z,17.40
2019-05-30T21:17:14.941Z,17.30
2019-05-30T21:19:59.906Z,17.30
2019-05-30T21:22:44.922Z,17.30
2019-05-30T21:25:30.205Z,17.30
2019-05-30T21:28:15.045Z,17.30
2019-05-30T21:30:59.850Z,17.20
2019-05-30T21:33:45.768Z,17.10
2019-05-30T21:36:32.289Z,17.10
2019-05-30T21:39:18.420Z,17.10
2019-05-30T21:42:03.575Z,17.00
2019-05-30T21:44:52.351Z,17.00
2019-05-30T21:47:35.584Z,17.00
2019-05-30T21:50:20.458Z,17.00
2019-05-30T21:53:05.278Z,17.00
2019-05-30T21:55:50.231Z,17.00
2019-05-30T21:58:35.494Z,17.00
2019-05-30T22:01:30.190Z,17.00
2019-05-30T22:04:15.185Z,17.00
2019-05-30T22:07:00.031Z,17.00
2019-05-30T22:09:45.273Z,16.90
2019-05-30T22:12:30.213Z,16.90
2019-05-30T22:15:15.768Z,16.90
2019-05-30T22:18:00.542Z,16.80
2019-05-30T22:20:45.851Z,16.80
2019-05-30T22:23:30.886Z,16.70
2019-05-30T22:26:15.835Z,16.70
2019-05-30T22:29:00.718Z,16.70
2019-05-30T22:31:46.575Z,16.70
2019-05-30T22:34:31.774Z,16.60
2019-05-30T22:37:16.540Z,16.60
2019-05-30T22:40:03.317Z,16.50
2019-05-30T22:42:50.142Z,16.50
2019-05-30T22:45:35.434Z,16.40
2019-05-30T22:48:20.282Z,16.30
2019-05-30T22:51:06.562Z,16.20
2019-05-30T22:53:53.077Z,16.10
2019-05-30T22:56:39.256Z,16.00
2019-05-30T22:59:24.062Z,15.90
2019-05-30T23:02:10.026Z,15.90
2019-05-30T23:04:54.929Z,15.80
2019-05-30T23:07:40.235Z,15.80
2019-05-30T23:10:25.067Z,15.80
2019-05-30T23:13:09.682Z,15.80
2019-05-30T23:15:54.485Z,15.60
2019-05-30T23:18:39.371Z,15.60
2019-05-30T23:21:24.220Z,15.50
2019-05-30T23:24:08.868Z,15.40
2019-05-30T23:26:53.819Z,15.30
2019-05-30T23:29:39.022Z,15.30
2019-05-30T23:32:23.970Z,15.20
2019-05-30T23:35:09.356Z,15.10
2019-05-30T23:37:54.697Z,15.00
2019-05-30T23:40:40.026Z,14.90
2019-05-30T23:43:26.285Z,14.90
2019-05-30T23:46:11.239Z,14.80
2019-05-30T23:48:55.954Z,14.70
2019-05-30T23:51:40.856Z,14.70
2019-05-30T23:54:25.718Z,14.60
2019-05-30T23:57:10.513Z,14.50
2019-05-30T23:59:55.317Z,14.50
